Berit — ZDHX2 — position and weather

sailwx.info

Track history (hours):
 
Tides and Currents Weather Stations Pressure Air Temp Water Temp Dewpoint Dewpoint Depression Visibility Wind Speed Wind Dir Waves Ship Positions

Berit

Last reported at 2015-Aug-04 19:32 UTC. Time now 2015-Aug-05 04:21 UTC.
Position N 52°41' E 003°59'.

Length 83 m; draft 4.6 m.

Type: Cargo ship. MMSI: 236386000.

Date/timePositionNaut miles runAvg speedWind from/ knotsBaromVisibWave heightAir tempDewpointWater temp
2015-Aug-04 19:32N 52°41' E 003°59'2210.4
2015-Aug-04 17:28N 52°25' E 003°34'1010.9
2015-Aug-04 16:33N 52°18' E 003°23'1111.1
2015-Aug-04 15:33N 52°10' E 003°10'1110.3
2015-Aug-04 14:31N 52°02' E 002°60'9 9.2
2015-Aug-04 13:33N 51°55' E 002°50'34 7.7
2015-Aug-04 09:04N 51°29' E 002°15'5 8.4
2015-Aug-04 08:27N 51°24' E 002°11'8 9.0
2015-Aug-04 07:33N 51°17' E 002°05'9 9.4
2015-Aug-04 06:34N 51°10' E 001°54'1010.2
2015-Aug-04 05:33N 51°04' E 001°42'1211.4
2015-Aug-04 04:33N 50°55' E 001°30'9211.1
2015-Aug-03 20:14N 49°46' W 000°07'6 8.5
2015-Aug-03 19:33N 49°41' W 000°07'9 8.7
2015-Aug-03 18:34N 49°32' W 000°07'8 8.4
2015-Aug-03 17:33N 49°27' E 000°03'1312.8
2015-Aug-03 16:33N 49°27' E 000°23'5 5.1
2015-Aug-03 15:33N 49°29' E 000°29'0 0.0
2015-Aug-03 05:33N 49°29' E 000°29'0 0.0
2015-Aug-03 04:33N 49°29' E 000°29'0 0.0
2015-Aug-03 03:33N 49°29' E 000°29'0 0.0
2015-Aug-03 02:33N 49°29' E 000°29'0 0.0
2015-Aug-03 01:33N 49°29' E 000°29'0 0.0
2015-Aug-03 00:33N 49°29' E 000°29'0 0.0
2015-Aug-02 23:33N 49°29' E 000°29'0 0.0
2015-Aug-02 22:33N 49°29' E 000°29'0 0.0
2015-Aug-02 21:33N 49°29' E 000°29'6 6.5
2015-Aug-02 20:34N 49°26' E 000°20'1212.2
2015-Aug-02 19:34N 49°27' E 000°02'8 7.9
2015-Aug-02 18:34N 49°32' W 000°08'1110.7
2015-Aug-02 17:34N 49°43' W 000°08'4110.3
2015-Aug-02 13:32N 50°24' W 000°03'9 9.1
2015-Aug-02 12:33N 50°29' E 000°08'13 9.2
2015-Aug-02 11:08N 50°33' E 000°27'5 8.4
2015-Aug-02 10:33N 50°35' E 000°35'8 8.3
2015-Aug-02 09:33N 50°39' E 000°46'10 9.9
2015-Aug-02 08:33N 50°45' E 000°59'1211.7
2015-Aug-02 07:34N 50°52' E 001°13'1312.7
2015-Aug-02 06:33N 51°01' E 001°27'1111.2
2015-Aug-02 05:34N 51°09' E 001°40'10 9.6
2015-Aug-02 04:34N 51°18' E 001°48'9 8.5
2015-Aug-02 03:34N 51°25' E 001°54'8 8.0
2015-Aug-02 02:33N 51°33' E 001°59'9 8.2
2015-Aug-02 01:26N 51°41' E 002°05'8 9.3
2015-Aug-02 00:33N 51°49' E 002°10'3711.5
2015-Aug-01 21:17N 52°25' E 002°23'  
2015-Jul-26 13:32N 59°07' E 004°49'7 7.3
2015-Jul-26 12:33N 59°02' E 004°58'7 7.2
2015-Jul-26 11:33N 58°55' E 005°05'7 7.1
2015-Jul-26 10:33N 58°49' E 005°12'35 7.0
2015-Jul-26 05:34N 58°22' E 005°54'8 7.6
2015-Jul-26 04:33N 58°17' E 006°05'8 7.7
2015-Jul-26 03:33N 58°11' E 006°15'8 7.8
2015-Jul-26 02:33N 58°06' E 006°26'  
Track history (hours):
 
Tides and Currents Weather Stations Pressure Air Temp Water Temp Dewpoint Dewpoint Depression Visibility Wind Speed Wind Dir Waves Ship Positions

Berit

Last reported at 2015-Aug-04 19:32 UTC. Time now 2015-Aug-05 04:21 UTC.
Position N 52°41' E 003°59'.

Length 83 m; draft 4.6 m.

Type: Cargo ship. MMSI: 236386000.

Date/timePositionNaut miles runAvg speedWind from/ knotsBaromVisibWave heightAir tempDewpointWater temp
2015-Aug-04 19:32N 52°41' E 003°59'2210.4
2015-Aug-04 17:28N 52°25' E 003°34'1010.9
2015-Aug-04 16:33N 52°18' E 003°23'1111.1
2015-Aug-04 15:33N 52°10' E 003°10'1110.3
2015-Aug-04 14:31N 52°02' E 002°60'9 9.2
2015-Aug-04 13:33N 51°55' E 002°50'34 7.7
2015-Aug-04 09:04N 51°29' E 002°15'5 8.4
2015-Aug-04 08:27N 51°24' E 002°11'8 9.0
2015-Aug-04 07:33N 51°17' E 002°05'9 9.4
2015-Aug-04 06:34N 51°10' E 001°54'1010.2
2015-Aug-04 05:33N 51°04' E 001°42'1211.4
2015-Aug-04 04:33N 50°55' E 001°30'9211.1
2015-Aug-03 20:14N 49°46' W 000°07'6 8.5
2015-Aug-03 19:33N 49°41' W 000°07'9 8.7
2015-Aug-03 18:34N 49°32' W 000°07'8 8.4
2015-Aug-03 17:33N 49°27' E 000°03'1312.8
2015-Aug-03 16:33N 49°27' E 000°23'5 5.1
2015-Aug-03 15:33N 49°29' E 000°29'0 0.0
2015-Aug-03 05:33N 49°29' E 000°29'0 0.0
2015-Aug-03 04:33N 49°29' E 000°29'0 0.0
2015-Aug-03 03:33N 49°29' E 000°29'0 0.0
2015-Aug-03 02:33N 49°29' E 000°29'0 0.0
2015-Aug-03 01:33N 49°29' E 000°29'0 0.0
2015-Aug-03 00:33N 49°29' E 000°29'0 0.0
2015-Aug-02 23:33N 49°29' E 000°29'0 0.0
2015-Aug-02 22:33N 49°29' E 000°29'0 0.0
2015-Aug-02 21:33N 49°29' E 000°29'6 6.5
2015-Aug-02 20:34N 49°26' E 000°20'1212.2
2015-Aug-02 19:34N 49°27' E 000°02'8 7.9
2015-Aug-02 18:34N 49°32' W 000°08'1110.7
2015-Aug-02 17:34N 49°43' W 000°08'4110.3
2015-Aug-02 13:32N 50°24' W 000°03'9 9.1
2015-Aug-02 12:33N 50°29' E 000°08'13 9.2
2015-Aug-02 11:08N 50°33' E 000°27'5 8.4
2015-Aug-02 10:33N 50°35' E 000°35'8 8.3
2015-Aug-02 09:33N 50°39' E 000°46'10 9.9
2015-Aug-02 08:33N 50°45' E 000°59'1211.7
2015-Aug-02 07:34N 50°52' E 001°13'1312.7
2015-Aug-02 06:33N 51°01' E 001°27'1111.2
2015-Aug-02 05:34N 51°09' E 001°40'10 9.6
2015-Aug-02 04:34N 51°18' E 001°48'9 8.5
2015-Aug-02 03:34N 51°25' E 001°54'8 8.0
2015-Aug-02 02:33N 51°33' E 001°59'9 8.2
2015-Aug-02 01:26N 51°41' E 002°05'8 9.3
2015-Aug-02 00:33N 51°49' E 002°10'3711.5
2015-Aug-01 21:17N 52°25' E 002°23'  
2015-Jul-26 13:32N 59°07' E 004°49'7 7.3
2015-Jul-26 12:33N 59°02' E 004°58'7 7.2
2015-Jul-26 11:33N 58°55' E 005°05'7 7.1
2015-Jul-26 10:33N 58°49' E 005°12'35 7.0
2015-Jul-26 05:34N 58°22' E 005°54'8 7.6
2015-Jul-26 04:33N 58°17' E 006°05'8 7.7
2015-Jul-26 03:33N 58°11' E 006°15'8 7.8
2015-Jul-26 02:33N 58°06' E 006°26'  

Dump ship's entire track history